Map

Track Data

SID SEASON NUMBER BASIN SUBBASIN NAME ISO_TIME NATURE LAT LON WMO_WIND WMO_PRES WMO_AGENCY TRACK_TYPE DIST2LAND LANDFALL IFLAG USA_AGENCY USA_ATCF_ID USA_LAT USA_LON USA_RECORD USA_STATUS USA_WIND USA_PRES USA_SSHS USA_R34_NE USA_R34_SE USA_R34_SW USA_R34_NW USA_R50_NE USA_R50_SE USA_R50_SW USA_R50_NW USA_R64_NE USA_R64_SE USA_R64_SW USA_R64_NW USA_POCI USA_ROCI USA_RMW USA_EYE TOKYO_LAT TOKYO_LON TOKYO_GRADE TOKYO_WIND TOKYO_PRES TOKYO_R50_DIR TOKYO_R50_LONG TOKYO_R50_SHORT TOKYO_R30_DIR TOKYO_R30_LONG TOKYO_R30_SHORT TOKYO_LAND CMA_LAT CMA_LON CMA_CAT CMA_WIND CMA_PRES HKO_LAT HKO_LON HKO_CAT HKO_WIND HKO_PRES NEWDELHI_LAT NEWDELHI_LON NEWDELHI_GRADE NEWDELHI_WIND NEWDELHI_PRES NEWDELHI_CI NEWDELHI_DP NEWDELHI_POCI REUNION_LAT REUNION_LON REUNION_TYPE REUNION_WIND REUNION_PRES REUNION_TNUM REUNION_CI REUNION_RMW REUNION_R34_NE REUNION_R34_SE REUNION_R34_SW REUNION_R34_NW REUNION_R50_NE REUNION_R50_SE REUNION_R50_SW REUNION_R50_NW REUNION_R64_NE REUNION_R64_SE REUNION_R64_SW REUNION_R64_NW BOM_LAT BOM_LON BOM_TYPE BOM_WIND BOM_PRES BOM_TNUM BOM_CI BOM_RMW BOM_R34_NE BOM_R34_SE BOM_R34_SW BOM_R34_NW BOM_R50_NE BOM_R50_SE BOM_R50_SW BOM_R50_NW BOM_R64_NE BOM_R64_SE BOM_R64_SW BOM_R64_NW BOM_ROCI BOM_POCI BOM_EYE BOM_POS_METHOD BOM_PRES_METHOD NADI_LAT NADI_LON NADI_CAT NADI_WIND NADI_PRES WELLINGTON_LAT WELLINGTON_LON WELLINGTON_WIND WELLINGTON_PRES DS824_LAT DS824_LON DS824_STAGE DS824_WIND DS824_PRES TD9636_LAT TD9636_LON TD9636_STAGE TD9636_WIND TD9636_PRES TD9635_LAT TD9635_LON TD9635_WIND TD9635_PRES TD9635_ROCI NEUMANN_LAT NEUMANN_LON NEUMANN_CLASS NEUMANN_WIND NEUMANN_PRES MLC_LAT MLC_LON MLC_CLASS MLC_WIND MLC_PRES USA_GUST BOM_GUST BOM_GUST_PER REUNION_GUST REUNION_GUST_PER USA_SEAHGT USA_SEARAD_NE USA_SEARAD_SE USA_SEARAD_SW USA_SEARAD_NW STORM_SPEED STORM_DIR
1964156N19274 1964 35 NA CS NOT_NAMED 1964-06-03 12:00:00 TS 18.5000 -86.1000 25 hurdat_atl main 164 161 O_____________ hurdat_atl AL011964 18.5000 -86.1000 TD 25 -1 2 349
1964156N19274 1964 35 NA CS NOT_NAMED 1964-06-03 15:00:00 TS 18.5950 -86.1099 main 161 157 P_____________ AL011964 18.5950 -86.1099 TD 25 -1 2 8
1964156N19274 1964 35 NA CS NOT_NAMED 1964-06-03 18:00:00 TS 18.7000 -86.1000 25 hurdat_atl main 157 153 O_____________ hurdat_atl AL011964 18.7000 -86.1000 TD 25 -1 2 12
1964156N19274 1964 35 NA CS NOT_NAMED 1964-06-03 21:00:00 TS 18.8275 -86.0701 main 153 147 P_____________ AL011964 18.8275 -86.0701 TD 25 -1 3 0
1964156N19274 1964 35 NA CS NOT_NAMED 1964-06-04 00:00:00 TS 19.0000 -86.1000 25 hurdat_atl main 147 120 O_____________ hurdat_atl AL011964 19.0000 -86.1000 TD 25 -1 5 333
1964156N19274 1964 35 NA CS NOT_NAMED 1964-06-04 03:00:00 TS 19.2276 -86.2849 main 120 94 P_____________ AL011964 19.2276 -86.2849 TD 25 -1 6 323
1964156N19274 1964 35 NA CS NOT_NAMED 1964-06-04 06:00:00 TS 19.5000 -86.5000 25 hurdat_atl main 94 84 O_____________ hurdat_atl AL011964 19.5000 -86.5000 TD 25 -1 7 331
1964156N19274 1964 35 NA CS NOT_NAMED 1964-06-04 09:00:00 TS 19.7925 -86.6226 main 90 76 P_____________ AL011964 19.7925 -86.6226 TD 25 -1 6 342
1964156N19274 1964 35 NA CS NOT_NAMED 1964-06-04 12:00:00 TS 20.1000 -86.7000 25 hurdat_atl main 76 45 O_____________ hurdat_atl AL011964 20.1000 -86.7000 TD 25 -1 6 348
1964156N19274 1964 35 NA CS NOT_NAMED 1964-06-04 15:00:00 TS 20.4075 -86.7650 main 45 15 P_____________ AL011964 20.4075 -86.7650 TD 27 -1 6 351
1964156N19274 1964 35 NA CS NOT_NAMED 1964-06-04 18:00:00 TS 20.7000 -86.8000 30 hurdat_atl main 15 10 O_____________ hurdat_atl AL011964 20.7000 -86.8000 TD 30 -1 5 354
1964156N19274 1964 35 NA CS NOT_NAMED 1964-06-04 21:00:00 TS 20.9350 -86.8224 main 10 0 P_____________ AL011964 20.9350 -86.8224 TD 30 -1 5 2
1964156N19274 1964 35 NA CS NOT_NAMED 1964-06-05 00:00:00 TS 21.2000 -86.8000 30 1007 hurdat_atl main 0 0 O_____________ hurdat_atl AL011964 21.2000 -86.8000 TD 30 1007 -1 6 8
1964156N19274 1964 35 NA CS NOT_NAMED 1964-06-05 03:00:00 TS 21.5400 -86.7372 main 23 23 P_____________ AL011964 21.5400 -86.7372 TD 30 -1 8 13
1964156N19274 1964 35 NA GM NOT_NAMED 1964-06-05 06:00:00 TS 22.0000 -86.6000 30 hurdat_atl main 69 69 O_____________ hurdat_atl AL011964 22.0000 -86.6000 TD 30 -1 11 17
1964156N19274 1964 35 NA GM NOT_NAMED 1964-06-05 09:00:00 TS 22.5975 -86.3873 main 137 137 P_____________ AL011964 22.5975 -86.3873 TD 30 -1 14 20
1964156N19274 1964 35 NA GM NOT_NAMED 1964-06-05 12:00:00 TS 23.3000 -86.1000 30 hurdat_atl main 192 192 O_____________ hurdat_atl AL011964 23.3000 -86.1000 TD 30 -1 16 22
1964156N19274 1964 35 NA GM NOT_NAMED 1964-06-05 15:00:00 TS 24.0426 -85.7576 main 233 233 P_____________ AL011964 24.0426 -85.7576 TD 30 -1 16 23
1964156N19274 1964 35 NA GM NOT_NAMED 1964-06-05 18:00:00 TS 24.8000 -85.4000 30 hurdat_atl main 274 274 O_____________ hurdat_atl AL011964 24.8000 -85.4000 TD 30 -1 16 22
1964156N19274 1964 35 NA GM NOT_NAMED 1964-06-05 21:00:00 TS 25.5149 -85.0920 main 314 250 P_____________ AL011964 25.5149 -85.0920 TD 27 -1 15 21
1964156N19274 1964 35 NA GM NOT_NAMED 1964-06-06 00:00:00 TS 26.2000 -84.8000 25 hurdat_atl main 250 196 O_____________ hurdat_atl AL011964 26.2000 -84.8000 TD 25 -1 15 21
1964156N19274 1964 35 NA GM NOT_NAMED 1964-06-06 03:00:00 TS 26.8648 -84.5144 main 193 135 P_____________ AL011964 26.8648 -84.5144 TD 25 -1 14 22
1964156N19274 1964 35 NA GM NOT_NAMED 1964-06-06 06:00:00 TS 27.5000 -84.2000 25 hurdat_atl main 135 98 O_____________ hurdat_atl AL011964 27.5000 -84.2000 TD 25 -1 14 25
1964156N19274 1964 35 NA GM NOT_NAMED 1964-06-06 09:00:00 TS 28.1298 -83.8372 main 91 62 P_____________ AL011964 28.1298 -83.8372 TD 25 -1 14 30
1964156N19274 1964 35 NA GM NOT_NAMED 1964-06-06 12:00:00 TS 28.7000 -83.4000 25 hurdat_atl main 62 0 O_____________ hurdat_atl AL011964 28.7000 -83.4000 TD 25 -1 14 38
1964156N19274 1964 35 NA GM NOT_NAMED 1964-06-06 15:00:00 TS 29.1873 -82.8871 main 0 0 P_____________ AL011964 29.1873 -82.8871 TD 25 -1 13 47
1964156N19274 1964 35 NA NA NOT_NAMED 1964-06-06 18:00:00 TS 29.6000 -82.3000 25 hurdat_atl main 0 0 O_____________ hurdat_atl AL011964 29.6000 -82.3000 TD 25 -1 13 54
1964156N19274 1964 35 NA NA NOT_NAMED 1964-06-06 21:00:00 TS 29.9650 -81.6570 main 0 0 P_____________ AL011964 29.9650 -81.6570 TD 27 -1 13 58
1964156N19274 1964 35 NA NA NOT_NAMED 1964-06-07 00:00:00 TS 30.3000 -81.0000 30 hurdat_atl main 44 44 O_____________ hurdat_atl AL011964 30.3000 -81.0000 TD 30 -1 13 58
1964156N19274 1964 35 NA NA NOT_NAMED 1964-06-07 03:00:00 TS 30.6423 -80.3770 main 96 96 P_____________ AL011964 30.6423 -80.3770 TD 35 0 12 56
1964156N19274 1964 35 NA NA NOT_NAMED 1964-06-07 06:00:00 TS 31.0000 -79.8000 40 hurdat_atl main 144 144 O_____________ hurdat_atl AL011964 31.0000 -79.8000 TS 40 0 12 51
1964156N19274 1964 35 NA NA NOT_NAMED 1964-06-07 09:00:00 TS 31.3921 -79.2845 main 149 136 P_____________ AL011964 31.3921 -79.2845 TS 45 0 12 47
1964156N19274 1964 35 NA NA NOT_NAMED 1964-06-07 12:00:00 TS 31.8000 -78.8000 50 hurdat_atl main 143 129 O_____________ hurdat_atl AL011964 31.8000 -78.8000 TS 50 0 12 44
1964156N19274 1964 35 NA NA NOT_NAMED 1964-06-07 15:00:00 TS 32.2370 -78.3225 main 136 129 P_____________ AL011964 32.2370 -78.3225 TS 50 0 12 47
1964156N19274 1964 35 NA NA NOT_NAMED 1964-06-07 18:00:00 TS 32.6000 -77.8000 50 hurdat_atl main 146 134 O_____________ hurdat_atl AL011964 32.6000 -77.8000 TS 50 0 11 60
1964156N19274 1964 35 NA NA NOT_NAMED 1964-06-07 21:00:00 TS 32.8023 -77.1795 main 143 143 P_____________ AL011964 32.8023 -77.1795 TS 47 0 11 75
1964156N19274 1964 35 NA NA NOT_NAMED 1964-06-08 00:00:00 TS 32.9000 -76.5000 45 hurdat_atl main 178 178 O_____________ hurdat_atl AL011964 32.9000 -76.5000 TS 45 0 11 83
1964156N19274 1964 35 NA NA NOT_NAMED 1964-06-08 03:00:00 TS 32.9490 -75.8441 main 210 200 P_____________ AL011964 32.9490 -75.8441 TS 42 0 12 85
1964156N19274 1964 35 NA NA NOT_NAMED 1964-06-08 06:00:00 TS 33.0000 -75.1000 40 1002 hurdat_atl main 229 229 O_____________ hurdat_atl AL011964 33.0000 -75.1000 TS 40 1002 0 14 84
1964156N19274 1964 35 NA NA NOT_NAMED 1964-06-08 09:00:00 TS 33.0901 -74.1862 main 276 276 P_____________ AL011964 33.0901 -74.1862 TS 40 1001 0 16 79
1964156N19274 1964 35 NA NA NOT_NAMED 1964-06-08 12:00:00 TS 33.3000 -73.2000 40 hurdat_atl main 336 336 I_____________ hurdat_atl AL011964 33.3000 -73.2000 TS 40 1001 0 17 69
1964156N19274 1964 35 NA NA NOT_NAMED 1964-06-08 15:00:00 TS 33.7025 -72.3167 main 373 373 P_____________ AL011964 33.7025 -72.3167 TS 42 1000 0 18 60
1964156N19274 1964 35 NA NA NOT_NAMED 1964-06-08 18:00:00 TS 34.2000 -71.3000 45 1000 hurdat_atl main 421 421 O_____________ hurdat_atl AL011964 34.2000 -71.3000 TS 45 1000 0 22 63
1964156N19274 1964 35 NA NA NOT_NAMED 1964-06-08 21:00:00 TS 34.6724 -69.9829 main 513 513 P_____________ AL011964 34.6724 -69.9829 TS 45 0 25 69
1964156N19274 1964 35 NA NA NOT_NAMED 1964-06-09 00:00:00 TS 35.1000 -68.5000 45 hurdat_atl main 637 637 O_____________ hurdat_atl AL011964 35.1000 -68.5000 TS 45 0 26 73
1964156N19274 1964 35 NA NA NOT_NAMED 1964-06-09 03:00:00 TS 35.4384 -66.9469 main 751 740 P_____________ AL011964 35.4384 -66.9469 TS 47 0 25 76
1964156N19274 1964 35 NA NA NOT_NAMED 1964-06-09 06:00:00 TS 35.7000 -65.5000 50 hurdat_atl main 772 772 O_____________ hurdat_atl AL011964 35.7000 -65.5000 TS 50 0 22 77
1964156N19274 1964 35 NA NA NOT_NAMED 1964-06-09 09:00:00 TS 35.9204 -64.3439 main 811 807 P_____________ AL011964 35.9204 -64.3439 TS 52 0 17 77
1964156N19274 1964 35 NA NA NOT_NAMED 1964-06-09 12:00:00 TS 36.1000 -63.4000 55 992 hurdat_atl main 839 831 O_____________ hurdat_atl AL011964 36.1000 -63.4000 TS 55 992 0 15 76
1964156N19274 1964 35 NA NA NOT_NAMED 1964-06-09 15:00:00 TS 36.2794 -62.5175 main 835 835 P_____________ AL011964 36.2794 -62.5175 TS 57 0 13 77
1964156N19274 1964 35 NA NA NOT_NAMED 1964-06-09 18:00:00 TS 36.4000 -61.8000 60 hurdat_atl main 844 844 O_____________ hurdat_atl AL011964 36.4000 -61.8000 TS 60 0 10 81
1964156N19274 1964 35 NA NA NOT_NAMED 1964-06-09 21:00:00 TS 36.4367 -61.2472 main 863 863 P_____________ AL011964 36.4367 -61.2472 TS 60 0 8 90
1964156N19274 1964 35 NA NA NOT_NAMED 1964-06-10 00:00:00 TS 36.4000 -60.8000 60 hurdat_atl main 877 877 O_____________ hurdat_atl AL011964 36.4000 -60.8000 TS 60 0 7 99
1964156N19274 1964 35 NA NA NOT_NAMED 1964-06-10 03:00:00 TS 36.3149 -60.3273 main 906 906 P_____________ AL011964 36.3149 -60.3273 TS 57 0 8 105
1964156N19274 1964 35 NA NA NOT_NAMED 1964-06-10 06:00:00 TS 36.2000 -59.9000 55 hurdat_atl main 932 932 O_____________ hurdat_atl AL011964 36.2000 -59.9000 TS 55 0 7 111
1964156N19274 1964 35 NA NA NOT_NAMED 1964-06-10 09:00:00 TS 36.0698 -59.5348 main 959 959 P_____________ AL011964 36.0698 -59.5348 TS 55 0 6 109
1964156N19274 1964 35 NA NA NOT_NAMED 1964-06-10 12:00:00 TS 36.0000 -59.2000 55 hurdat_atl main 982 982 O_____________ hurdat_atl AL011964 36.0000 -59.2000 TS 55 0 6 95
1964156N19274 1964 35 NA NA NOT_NAMED 1964-06-10 15:00:00 TS 36.0249 -58.8497 main 1001 991 P_____________ AL011964 36.0249 -58.8497 TS 52 0 6 71
1964156N19274 1964 35 NA NA NOT_NAMED 1964-06-10 18:00:00 TS 36.2000 -58.5000 50 hurdat_atl main 996 984 O_____________ hurdat_atl AL011964 36.2000 -58.5000 TS 50 0 8 48
1964156N19274 1964 35 NA NA NOT_NAMED 1964-06-10 21:00:00 TS 36.5400 -58.1427 main 989 952 P_____________ AL011964 36.5400 -58.1427 TS 47 0 10 35
1964156N19274 1964 35 NA NA NOT_NAMED 1964-06-11 00:00:00 TS 37.0000 -57.8000 45 997 hurdat_atl main 952 907 O_____________ hurdat_atl AL011964 37.0000 -57.8000 TS 45 997 0 11 29
1964156N19274 1964 35 NA NA NOT_NAMED 1964-06-11 03:00:00 TS 37.4925 -57.4775 main 907 863 P_____________ AL011964 37.4925 -57.4775 TS 42 999 0 11 25
1964156N19274 1964 35 NA NA NOT_NAMED 1964-06-11 06:00:00 TS 38.0000 -57.2000 40 1001 hurdat_atl main 863 828 O_____________ hurdat_atl AL011964 38.0000 -57.2000 TS 40 1001 0 11 22
1964156N19274 1964 35 NA NA NOT_NAMED 1964-06-11 09:00:00 TS 38.4724 -56.9845 main 818 784 P_____________ AL011964 38.4724 -56.9845 TS 40 0 10 19
1964156N19274 1964 35 NA NA NOT_NAMED 1964-06-11 12:00:00 TS 38.9000 -56.8000 40 hurdat_atl main 784 758 O_____________ hurdat_atl AL011964 38.9000 -56.8000 TS 40 0 8 20
1964156N19274 1964 35 NA NA NOT_NAMED 1964-06-11 15:00:00 TS 39.2676 -56.6055 main 752 731 P_____________ AL011964 39.2676 -56.6055 TS 37 0 8 24
1964156N19274 1964 35 NA NA NOT_NAMED 1964-06-11 18:00:00 TS 39.6000 -56.4000 35 hurdat_atl main 731 O_____________ hurdat_atl AL011964 39.6000 -56.4000 TS 35 0 7 26

About IBTrACS Database

This database is a web-friendly format of International Best Track Archive for Climate Stewardship (IBTrACS), a global best track data archive curated by NOAA dating back to 1842.

Updated: 2021-12-01